Time;durP1;ratioP1;P1;durP2;ratioP2;P2;SDS_P1;SDS_P2;PMS_P1;PMS_P2;Temp;Humidity;BMP_temperature;BMP_pressure;BME280_temperature;BME280_humidity;BME280_pressure;Samples;Min_cycle;Max_cycle;Signal;HPM_P1;HPM_P2
2022/10/17 00:00:28;;;;;;;11.23;5.07;;;;;;;;;;5014790;28;20555;-63
2022/10/17 00:02:55;;;;;;;6.03;4.97;;;;;;;;;;5015116;28;20108;-64
2022/10/17 00:05:23;;;;;;;12.63;5.82;;;;;;;;;;5014371;28;20096;-64
2022/10/17 00:07:51;;;;;;;7.25;4.25;;;;;;;;;;5014553;28;20112;-64
2022/10/17 00:10:18;;;;;;;8.30;4.57;;;;;;;;;;5014573;28;20493;-64
2022/10/17 00:12:45;;;;;;;10.48;4.05;;;;;;;;;;5014996;28;20575;-63
2022/10/17 00:15:17;;;;;;;8.25;4.40;;;;;;;;;;5014866;28;20050;-64
2022/10/17 00:17:43;;;;;;;7.65;4.15;;;;;;;;;;5014544;28;20057;-64
2022/10/17 00:20:11;;;;;;;8.68;4.00;;;;;;;;;;5013733;28;20069;-64
2022/10/17 00:22:37;;;;;;;7.45;3.90;;;;;;;;;;5014797;28;20057;-63
2022/10/17 00:25:04;;;;;;;7.70;3.88;;;;;;;;;;5014702;28;20054;-64
2022/10/17 00:27:35;;;;;;;6.28;3.03;;;;;;;;;;5015064;28;20050;-64
2022/10/17 00:30:02;;;;;;;9.75;3.33;;;;;;;;;;5014401;28;20464;-64
2022/10/17 00:32:29;;;;;;;6.38;3.25;;;;;;;;;;5014242;28;20050;-63
2022/10/17 00:34:56;;;;;;;7.43;3.80;;;;;;;;;;5014386;28;20056;-64
2022/10/17 00:37:23;;;;;;;10.50;3.30;;;;;;;;;;5014343;28;20050;-64
2022/10/17 00:39:50;;;;;;;9.63;3.38;;;;;;;;;;5013558;28;20076;-65
2022/10/17 00:42:16;;;;;;;9.18;4.13;;;;;;;;;;5013948;28;20127;-64
2022/10/17 00:44:46;;;;;;;8.25;4.50;;;;;;;;;;5013952;28;20045;-63
2022/10/17 00:47:14;;;;;;;9.50;4.63;;;;;;;;;;5014167;28;20054;-64
2022/10/17 00:49:41;;;;;;;7.57;4.55;;;;;;;;;;5012007;28;20100;-64
2022/10/17 00:52:10;;;;;;;11.48;4.78;;;;;;;;;;5012244;28;20045;-63
2022/10/17 00:54:40;;;;;;;9.68;4.55;;;;;;;;;;5012898;28;20092;-64
2022/10/17 00:57:07;;;;;;;8.77;4.65;;;;;;;;;;4996902;28;20563;-64
2022/10/17 00:59:33;;;;;;;7.25;3.80;;;;;;;;;;5013579;28;20046;-63
2022/10/17 01:02:08;;;;;;;4.43;3.47;;;;;;;;;;5021286;28;20566;-63
2022/10/17 01:04:36;;;;;;;5.00;3.95;;;;;;;;;;5026062;28;20050;-64
2022/10/17 01:07:03;;;;;;;6.00;3.40;;;;;;;;;;5008949;28;20050;-64
2022/10/17 01:09:29;;;;;;;7.25;3.47;;;;;;;;;;5025578;28;20057;-64
2022/10/17 01:12:14;;;;;;;7.22;3.10;;;;;;;;;;5025725;28;20061;-64
2022/10/17 01:14:49;;;;;;;7.57;3.40;;;;;;;;;;5023986;28;20053;-64
2022/10/17 01:17:22;;;;;;;12.48;3.35;;;;;;;;;;5022188;28;20050;-63
2022/10/17 01:20:07;;;;;;;6.63;3.17;;;;;;;;;;5022306;28;20061;-65
2022/10/17 01:22:46;;;;;;;9.73;3.50;;;;;;;;;;5023319;28;20076;-63
2022/10/17 01:25:27;;;;;;;7.22;3.05;;;;;;;;;;5007804;28;20485;-63
2022/10/17 01:28:17;;;;;;;6.30;3.33;;;;;;;;;;5022979;28;20100;-63
2022/10/17 01:31:10;;;;;;;6.20;3.25;;;;;;;;;;5023245;28;20056;-64
2022/10/17 01:33:43;;;;;;;;;;;;;;;;;;5008226;28;20080;-65
2022/10/17 01:36:48;;;;;;;9.68;3.08;;;;;;;;;;5023530;28;19922;-64
2022/10/17 01:39:36;;;;;;;9.68;4.07;;;;;;;;;;5003324;28;20139;-64
2022/10/17 01:42:10;;;;;;;7.38;3.00;;;;;;;;;;5008876;28;20050;-64
2022/10/17 01:44:48;;;;;;;6.95;3.15;;;;;;;;;;5024890;28;20049;-63
2022/10/17 01:47:18;;;;;;;10.65;2.83;;;;;;;;;;5019620;28;20405;-63
2022/10/17 01:49:45;;;;;;;5.78;3.15;;;;;;;;;;5011421;28;20050;-63
2022/10/17 01:52:18;;;;;;;9.88;3.38;;;;;;;;;;5011596;28;20046;-62
2022/10/17 01:54:47;;;;;;;7.25;2.80;;;;;;;;;;5011580;28;20466;-63
2022/10/17 01:57:29;;;;;;;6.75;3.17;;;;;;;;;;4995648;28;20049;-62
2022/10/17 01:59:56;;;;;;;3.95;2.00;;;;;;;;;;5010822;28;20108;-62
2022/10/17 02:02:24;;;;;;;5.03;2.75;;;;;;;;;;4994934;28;20116;-63
2022/10/17 02:04:50;;;;;;;5.88;2.70;;;;;;;;;;4994912;28;20054;-63
2022/10/17 02:07:17;;;;;;;5.15;2.80;;;;;;;;;;5011370;28;20141;-63
2022/10/17 02:09:44;;;;;;;5.13;3.08;;;;;;;;;;5011665;28;20053;-62
2022/10/17 02:12:15;;;;;;;4.10;2.33;;;;;;;;;;5012427;28;20204;-63
2022/10/17 02:15:03;;;;;;;9.23;2.60;;;;;;;;;;5009405;28;20563;-62
2022/10/17 02:17:36;;;;;;;11.45;3.45;;;;;;;;;;5012223;28;20061;-62
2022/10/17 02:20:15;;;;;;;5.97;2.78;;;;;;;;;;5011576;28;20057;-62
2022/10/17 02:23:08;;;;;;;7.50;3.00;;;;;;;;;;5012092;28;20073;-62
2022/10/17 02:25:57;;;;;;;;;;;;;;;;;;5011284;28;20054;-64
2022/10/17 02:28:45;;;;;;;8.55;2.53;;;;;;;;;;5010678;28;19921;-62
2022/10/17 02:31:17;;;;;;;5.93;2.55;;;;;;;;;;5014816;28;20064;-62
2022/10/17 02:33:50;;;;;;;8.32;3.08;;;;;;;;;;5014497;28;20058;-62
2022/10/17 02:36:22;;;;;;;6.05;2.85;;;;;;;;;;5014549;28;20116;-63
2022/10/17 02:38:49;;;;;;;10.32;3.08;;;;;;;;;;4997967;28;20045;-64
2022/10/17 02:41:17;;;;;;;10.52;2.70;;;;;;;;;;4998351;28;20042;-63
2022/10/17 02:43:45;;;;;;;6.97;3.22;;;;;;;;;;4998254;28;20108;-63
2022/10/17 02:46:19;;;;;;;4.78;2.80;;;;;;;;;;4998323;28;20046;-63
2022/10/17 02:48:59;;;;;;;5.65;2.88;;;;;;;;;;5013936;28;20053;-62
2022/10/17 02:51:36;;;;;;;5.07;2.70;;;;;;;;;;5015074;28;20049;-65
2022/10/17 02:54:11;;;;;;;16.42;3.58;;;;;;;;;;4999133;28;20053;-64
2022/10/17 02:56:44;;;;;;;9.98;3.90;;;;;;;;;;5014750;28;20058;-63
2022/10/17 02:59:11;;;;;;;6.28;2.75;;;;;;;;;;4997791;28;20477;-63
2022/10/17 03:01:38;;;;;;;15.55;3.53;;;;;;;;;;5013888;28;20042;-63
2022/10/17 03:04:08;;;;;;;6.95;2.72;;;;;;;;;;5013904;28;20056;-62
2022/10/17 03:06:35;;;;;;;3.17;2.45;;;;;;;;;;5015112;28;20571;-62
2022/10/17 03:09:02;;;;;;;7.43;3.22;;;;;;;;;;5014616;28;20046;-63
2022/10/17 03:11:29;;;;;;;4.75;3.38;;;;;;;;;;5015000;28;20045;-63
2022/10/17 03:13:55;;;;;;;3.88;2.78;;;;;;;;;;5014183;28;20049;-62
2022/10/17 03:16:22;;;;;;;7.95;2.75;;;;;;;;;;5015101;28;20053;-63
2022/10/17 03:18:48;;;;;;;9.63;3.38;;;;;;;;;;5014218;28;20547;-62
2022/10/17 03:21:15;;;;;;;3.92;2.50;;;;;;;;;;5014424;28;20072;-62
2022/10/17 03:23:42;;;;;;;7.00;2.80;;;;;;;;;;5014710;28;20085;-63
2022/10/17 03:26:09;;;;;;;7.88;3.10;;;;;;;;;;5014605;28;20049;-63
2022/10/17 03:28:35;;;;;;;10.98;3.10;;;;;;;;;;5014234;28;20483;-62
2022/10/17 03:31:08;;;;;;;8.75;3.08;;;;;;;;;;5014700;28;20060;-63
2022/10/17 03:33:35;;;;;;;;;;;;;;;;;;5015531;28;20107;-63
2022/10/17 03:36:10;;;;;;;8.50;2.65;;;;;;;;;;5014464;28;19922;-63
2022/10/17 03:38:36;;;;;;;14.05;3.05;;;;;;;;;;5013789;28;20521;-63
2022/10/17 03:41:04;;;;;;;9.63;3.30;;;;;;;;;;5013293;28;20081;-62
2022/10/17 03:43:30;;;;;;;8.30;2.67;;;;;;;;;;5014122;28;20081;-64
2022/10/17 03:45:58;;;;;;;6.80;2.80;;;;;;;;;;5014557;28;20077;-63
2022/10/17 03:48:25;;;;;;;5.65;2.75;;;;;;;;;;5013878;28;20053;-63
2022/10/17 03:50:52;;;;;;;4.93;2.85;;;;;;;;;;5014100;28;20568;-62
2022/10/17 03:53:18;;;;;;;6.03;3.10;;;;;;;;;;5014043;28;20668;-63
2022/10/17 03:55:45;;;;;;;8.63;2.83;;;;;;;;;;5014123;28;20100;-63
2022/10/17 03:58:12;;;;;;;3.55;2.80;;;;;;;;;;5013709;28;20054;-62
2022/10/17 04:00:38;;;;;;;3.97;2.55;;;;;;;;;;5013930;28;20153;-62
2022/10/17 04:03:05;;;;;;;4.18;2.70;;;;;;;;;;5013970;28;20077;-63
2022/10/17 04:05:31;;;;;;;8.63;2.90;;;;;;;;;;5013916;28;20111;-63
2022/10/17 04:07:58;;;;;;;6.63;2.83;;;;;;;;;;5013721;28;20124;-63
2022/10/17 04:10:30;;;;;;;7.40;3.30;;;;;;;;;;5013947;28;20449;-63
2022/10/17 04:12:56;;;;;;;8.25;3.03;;;;;;;;;;5012581;28;20501;-62
2022/10/17 04:15:23;;;;;;;3.28;2.83;;;;;;;;;;5013864;28;20054;-64
2022/10/17 04:17:49;;;;;;;6.50;3.15;;;;;;;;;;5013216;28;20108;-63
2022/10/17 04:20:16;;;;;;;5.35;3.10;;;;;;;;;;5012417;28;20050;-62
2022/10/17 04:22:43;;;;;;;5.35;2.60;;;;;;;;;;5014442;28;20424;-63
2022/10/17 04:25:09;;;;;;;5.35;2.70;;;;;;;;;;5013696;28;20120;-64
2022/10/17 04:27:36;;;;;;;7.65;2.90;;;;;;;;;;5015032;28;20046;-64
2022/10/17 04:30:03;;;;;;;10.27;3.28;;;;;;;;;;5014112;28;20054;-64
2022/10/17 04:32:29;;;;;;;5.63;3.00;;;;;;;;;;5014812;28;20428;-65
2022/10/17 04:34:57;;;;;;;5.32;2.40;;;;;;;;;;5013632;28;20057;-63
2022/10/17 04:37:23;;;;;;;7.03;2.75;;;;;;;;;;5013862;28;20101;-64
2022/10/17 04:39:50;;;;;;;7.00;3.40;;;;;;;;;;5012841;28;20365;-64
2022/10/17 04:42:16;;;;;;;6.55;3.28;;;;;;;;;;5014073;28;20046;-62
2022/10/17 04:44:43;;;;;;;6.55;2.83;;;;;;;;;;5014015;28;20076;-64
2022/10/17 04:47:09;;;;;;;3.35;2.90;;;;;;;;;;5013806;28;20165;-63
2022/10/17 04:49:36;;;;;;;7.38;2.80;;;;;;;;;;5013057;28;20513;-64
2022/10/17 04:52:03;;;;;;;8.32;3.20;;;;;;;;;;5013684;28;20046;-64
2022/10/17 04:54:29;;;;;;;3.22;2.85;;;;;;;;;;5013261;28;20054;-64
2022/10/17 04:56:56;;;;;;;6.43;3.30;;;;;;;;;;5013260;28;20092;-65
2022/10/17 04:59:23;;;;;;;4.85;2.80;;;;;;;;;;5012868;28;20045;-63
2022/10/17 05:01:49;;;;;;;5.03;2.85;;;;;;;;;;5013325;28;20049;-63
2022/10/17 05:04:16;;;;;;;4.68;2.50;;;;;;;;;;5013716;28;20099;-64
2022/10/17 05:06:49;;;;;;;8.00;3.05;;;;;;;;;;5013865;28;20051;-64
2022/10/17 05:09:15;;;;;;;8.15;2.90;;;;;;;;;;5012599;28;20085;-64
2022/10/17 05:11:42;;;;;;;4.07;3.10;;;;;;;;;;5013670;28;20046;-64
2022/10/17 05:14:09;;;;;;;4.85;3.30;;;;;;;;;;5012043;28;20084;-62
2022/10/17 05:16:35;;;;;;;5.75;3.08;;;;;;;;;;5012969;28;20137;-63
2022/10/17 05:19:02;;;;;;;3.97;2.67;;;;;;;;;;5012861;28;20045;-64
2022/10/17 05:21:29;;;;;;;4.45;2.67;;;;;;;;;;5011952;28;20068;-65
2022/10/17 05:23:56;;;;;;;6.60;2.70;;;;;;;;;;5013482;28;20136;-64
2022/10/17 05:26:23;;;;;;;4.57;2.45;;;;;;;;;;5013240;28;20076;-64
2022/10/17 05:28:51;;;;;;;4.45;2.95;;;;;;;;;;5012385;28;20104;-64
2022/10/17 05:31:18;;;;;;;9.02;3.28;;;;;;;;;;5013293;28;20101;-63
2022/10/17 05:33:44;;;;;;;6.28;3.45;;;;;;;;;;5012809;28;20109;-62
2022/10/17 05:36:11;;;;;;;3.75;3.00;;;;;;;;;;5012552;28;20057;-63
2022/10/17 05:38:38;;;;;;;5.53;3.10;;;;;;;;;;5011954;28;20057;-62
2022/10/17 05:41:05;;;;;;;9.57;3.20;;;;;;;;;;5012518;28;20085;-63
2022/10/17 05:43:32;;;;;;;8.27;3.40;;;;;;;;;;5012427;28;20053;-63
2022/10/17 05:46:02;;;;;;;9.68;3.33;;;;;;;;;;5012451;28;20054;-62
2022/10/17 05:48:29;;;;;;;8.73;3.08;;;;;;;;;;5012139;28;20054;-62
2022/10/17 05:51:02;;;;;;;7.85;3.60;;;;;;;;;;5012569;28;20054;-63
2022/10/17 05:53:29;;;;;;;;;;;;;;;;;;5012706;28;20050;-62
2022/10/17 05:56:00;;;;;;;8.77;3.33;;;;;;;;;;5012343;28;19983;-63
2022/10/17 05:58:27;;;;;;;10.82;3.15;;;;;;;;;;5011943;28;20057;-62
2022/10/17 06:01:14;;;;;;;6.93;3.33;;;;;;;;;;5011828;28;20133;-63
2022/10/17 06:03:41;;;;;;;6.07;3.25;;;;;;;;;;5011744;28;20049;-63
2022/10/17 06:06:10;;;;;;;7.72;3.42;;;;;;;;;;5012474;28;20046;-62
2022/10/17 06:08:36;;;;;;;7.82;3.08;;;;;;;;;;5011490;28;20128;-63
2022/10/17 06:11:03;;;;;;;9.50;3.65;;;;;;;;;;5012541;28;20046;-62
2022/10/17 06:13:35;;;;;;;9.73;4.38;;;;;;;;;;5010560;28;20539;-62
2022/10/17 06:16:02;;;;;;;7.72;3.42;;;;;;;;;;5012118;28;20109;-62
2022/10/17 06:18:28;;;;;;;5.10;3.15;;;;;;;;;;5011611;28;20077;-64
2022/10/17 06:21:04;;;;;;;7.22;3.40;;;;;;;;;;5012319;28;20050;-63
2022/10/17 06:23:31;;;;;;;12.82;3.10;;;;;;;;;;5012324;28;20108;-64
2022/10/17 06:26:02;;;;;;;7.22;3.60;;;;;;;;;;5012527;28;20049;-63
2022/10/17 06:28:29;;;;;;;8.75;3.60;;;;;;;;;;5011416;28;20466;-63
2022/10/17 06:30:56;;;;;;;7.07;3.78;;;;;;;;;;5012219;28;20125;-63
2022/10/17 06:33:22;;;;;;;7.45;4.20;;;;;;;;;;5012055;28;20409;-64
2022/10/17 06:35:53;;;;;;;6.78;3.47;;;;;;;;;;5012146;28;20086;-63
2022/10/17 06:38:20;;;;;;;6.32;4.22;;;;;;;;;;5011643;28;20049;-63
2022/10/17 06:40:46;;;;;;;8.23;3.88;;;;;;;;;;5011934;28;20050;-65
2022/10/17 06:43:13;;;;;;;6.47;2.95;;;;;;;;;;5012046;28;20485;-64
2022/10/17 06:45:40;;;;;;;6.15;3.70;;;;;;;;;;5012314;28;20497;-63
2022/10/17 06:48:07;;;;;;;6.95;3.45;;;;;;;;;;5012506;28;20091;-65
2022/10/17 06:50:34;;;;;;;7.72;3.90;;;;;;;;;;5012275;28;20058;-63
2022/10/17 06:53:00;;;;;;;5.38;3.17;;;;;;;;;;5012056;28;20050;-62
2022/10/17 06:55:27;;;;;;;9.25;3.90;;;;;;;;;;5011931;28;20054;-64
2022/10/17 06:57:55;;;;;;;7.25;3.25;;;;;;;;;;5011278;28;20119;-63
2022/10/17 07:00:22;;;;;;;7.75;3.80;;;;;;;;;;5011667;28;20062;-63
2022/10/17 07:02:48;;;;;;;8.18;3.78;;;;;;;;;;5011380;28;20077;-63
2022/10/17 07:05:16;;;;;;;6.88;3.50;;;;;;;;;;5011671;28;20050;-64
2022/10/17 07:07:42;;;;;;;4.38;3.17;;;;;;;;;;5012021;28;20104;-63
2022/10/17 07:10:12;;;;;;;7.75;4.70;;;;;;;;;;5011889;28;20077;-62
2022/10/17 07:12:39;;;;;;;10.35;6.43;;;;;;;;;;5011693;28;20084;-62
2022/10/17 07:15:06;;;;;;;6.30;3.92;;;;;;;;;;5010071;28;20046;-63
2022/10/17 07:17:33;;;;;;;8.88;3.25;;;;;;;;;;5015079;28;20088;-63
2022/10/17 07:19:59;;;;;;;7.07;3.53;;;;;;;;;;5014928;28;20058;-63
2022/10/17 07:22:26;;;;;;;7.57;3.65;;;;;;;;;;5015117;28;20050;-62
2022/10/17 07:24:52;;;;;;;7.13;3.55;;;;;;;;;;5014113;28;20085;-63
2022/10/17 07:27:19;;;;;;;10.65;3.25;;;;;;;;;;5015250;28;20460;-63
2022/10/17 07:29:46;;;;;;;4.22;3.17;;;;;;;;;;5014279;28;20559;-64
2022/10/17 07:32:12;;;;;;;8.00;3.28;;;;;;;;;;5015047;28;20046;-65
2022/10/17 07:34:39;;;;;;;7.32;3.25;;;;;;;;;;5015260;28;20053;-62
2022/10/17 07:37:06;;;;;;;5.32;2.92;;;;;;;;;;5015110;28;20050;-62
2022/10/17 07:39:34;;;;;;;7.32;2.75;;;;;;;;;;5014403;28;20050;-62
2022/10/17 07:42:01;;;;;;;6.88;2.65;;;;;;;;;;5015425;28;20050;-61
2022/10/17 07:44:27;;;;;;;8.13;2.70;;;;;;;;;;5015612;28;20444;-64
2022/10/17 07:46:54;;;;;;;4.07;2.55;;;;;;;;;;5015623;28;20497;-65
2022/10/17 07:49:21;;;;;;;11.05;3.28;;;;;;;;;;5014621;28;20088;-64
2022/10/17 07:51:48;;;;;;;6.43;3.00;;;;;;;;;;5015137;28;20104;-64
2022/10/17 07:54:15;;;;;;;5.10;3.17;;;;;;;;;;5014877;28;20511;-64
2022/10/17 07:56:42;;;;;;;5.85;2.85;;;;;;;;;;5015203;28;20077;-64
2022/10/17 07:59:08;;;;;;;7.03;3.08;;;;;;;;;;5014373;28;20571;-64
2022/10/17 08:01:35;;;;;;;4.78;2.45;;;;;;;;;;5015217;28;20046;-63
2022/10/17 08:04:02;;;;;;;4.45;2.50;;;;;;;;;;5014531;28;20069;-63
2022/10/17 08:06:29;;;;;;;4.07;2.42;;;;;;;;;;5014986;28;20467;-63
2022/10/17 08:08:56;;;;;;;3.20;2.30;;;;;;;;;;5014005;28;20057;-62
2022/10/17 08:11:24;;;;;;;3.45;2.20;;;;;;;;;;5014344;28;20555;-64
2022/10/17 08:13:50;;;;;;;6.35;2.72;;;;;;;;;;5011285;28;20046;-62
2022/10/17 08:16:17;;;;;;;4.32;1.40;;;;;;;;;;5014123;28;20054;-62
2022/10/17 08:18:44;;;;;;;3.90;2.03;;;;;;;;;;5013658;28;20077;-63
2022/10/17 08:21:12;;;;;;;2.67;1.75;;;;;;;;;;5013872;28;20050;-62
2022/10/17 08:23:38;;;;;;;4.07;1.98;;;;;;;;;;5014292;28;20075;-63
2022/10/17 08:26:09;;;;;;;2.35;1.67;;;;;;;;;;5013829;28;20050;-64
2022/10/17 08:28:37;;;;;;;5.78;2.20;;;;;;;;;;5014011;28;20054;-64
2022/10/17 08:31:11;;;;;;;2.17;1.40;;;;;;;;;;5014352;28;20493;-64
2022/10/17 08:33:38;;;;;;;1.35;1.15;;;;;;;;;;5013941;28;20050;-63
2022/10/17 08:36:05;;;;;;;5.60;1.80;;;;;;;;;;5013035;28;20050;-63
2022/10/17 08:38:33;;;;;;;2.15;1.80;;;;;;;;;;5013551;28;20058;-63
2022/10/17 08:41:04;;;;;;;6.15;1.88;;;;;;;;;;5014290;28;20129;-64
2022/10/17 08:43:43;;;;;;;2.60;1.85;;;;;;;;;;5013839;28;20539;-62
2022/10/17 08:46:10;;;;;;;3.38;1.50;;;;;;;;;;4996969;28;20100;-63
2022/10/17 08:48:39;;;;;;;4.38;1.75;;;;;;;;;;5013248;28;20046;-63
2022/10/17 08:51:16;;;;;;;1.77;1.52;;;;;;;;;;5012642;28;20563;-63
2022/10/17 08:53:42;;;;;;;2.17;1.20;;;;;;;;;;5014017;28;20046;-62
2022/10/17 08:56:18;;;;;;;3.55;1.85;;;;;;;;;;5013916;28;20046;-63
2022/10/17 08:59:05;;;;;;;5.72;1.70;;;;;;;;;;5013266;28;20049;-64
2022/10/17 09:01:43;;;;;;;3.03;1.85;;;;;;;;;;5013950;28;20072;-63
2022/10/17 09:04:28;;;;;;;3.92;1.90;;;;;;;;;;5012892;28;20092;-64
2022/10/17 09:07:23;;;;;;;3.30;1.83;;;;;;;;;;5013348;28;20497;-64
2022/10/17 09:10:03;;;;;;;3.47;2.10;;;;;;;;;;5011915;28;20050;-64
2022/10/17 09:12:45;;;;;;;4.90;2.20;;;;;;;;;;5012391;28;20505;-63
2022/10/17 09:15:36;;;;;;;5.13;1.90;;;;;;;;;;5010530;28;20054;-62
2022/10/17 09:18:14;;;;;;;3.95;2.05;;;;;;;;;;5012842;28;20073;-63
2022/10/17 09:20:50;;;;;;;6.07;1.75;;;;;;;;;;5011841;28;20045;-63
2022/10/17 09:23:23;;;;;;;4.07;2.30;;;;;;;;;;5013287;28;20069;-64
2022/10/17 09:25:55;;;;;;;7.90;2.08;;;;;;;;;;5011693;28;20046;-63
2022/10/17 09:28:31;;;;;;;4.80;1.75;;;;;;;;;;5011603;28;20053;-62
2022/10/17 09:31:12;;;;;;;1.85;1.40;;;;;;;;;;5011279;28;20235;-63
2022/10/17 09:33:43;;;;;;;5.78;1.60;;;;;;;;;;5012162;28;20072;-64
2022/10/17 09:36:33;;;;;;;4.03;1.52;;;;;;;;;;4997488;28;20070;-63
2022/10/17 09:39:16;;;;;;;4.80;1.85;;;;;;;;;;5010103;28;20053;-65
2022/10/17 09:41:52;;;;;;;5.63;1.60;;;;;;;;;;5010965;28;20108;-63
2022/10/17 09:44:20;;;;;;;4.18;1.42;;;;;;;;;;4995104;28;20405;-63
2022/10/17 09:47:24;;;;;;;3.13;1.45;;;;;;;;;;5012429;28;20049;-64
2022/10/17 09:49:50;;;;;;;3.05;1.25;;;;;;;;;;5011761;28;20050;-65
2022/10/17 09:52:29;;;;;;;2.97;1.50;;;;;;;;;;5011559;28;20046;-65
2022/10/17 09:55:06;;;;;;;4.53;1.50;;;;;;;;;;5010628;28;20057;-64
2022/10/17 09:57:51;;;;;;;2.78;1.30;;;;;;;;;;5009559;28;20072;-66
2022/10/17 10:00:29;;;;;;;4.60;1.70;;;;;;;;;;4991680;28;20042;-68
2022/10/17 10:03:15;;;;;;;4.03;1.30;;;;;;;;;;4999121;28;20038;-67
2022/10/17 10:05:57;;;;;;;5.00;1.95;;;;;;;;;;4996483;28;20077;-69
2022/10/17 10:08:27;;;;;;;4.32;1.40;;;;;;;;;;4997280;28;20050;-68
2022/10/17 10:10:59;;;;;;;4.28;1.70;;;;;;;;;;4994894;28;20419;-68
2022/10/17 10:13:26;;;;;;;4.15;1.75;;;;;;;;;;5000527;28;20088;-68
2022/10/17 10:15:53;;;;;;;8.38;1.90;;;;;;;;;;4996989;28;20058;-68
2022/10/17 10:18:25;;;;;;;2.42;1.63;;;;;;;;;;4997668;28;20479;-67
2022/10/17 10:21:02;;;;;;;;;;;;;;;;;;5002834;28;20057;-67
2022/10/17 10:23:29;;;;;;;4.30;1.85;;;;;;;;;;4996448;28;20305;-67
2022/10/17 10:25:58;;;;;;;1.83;1.30;;;;;;;;;;5001345;28;20424;-68
2022/10/17 10:28:29;;;;;;;3.70;1.40;;;;;;;;;;4977375;28;20654;-67
2022/10/17 10:30:56;;;;;;;3.72;1.55;;;;;;;;;;4995533;28;20081;-67
2022/10/17 10:33:25;;;;;;;3.00;2.40;;;;;;;;;;4999366;28;20049;-67
2022/10/17 10:36:02;;;;;;;5.75;1.70;;;;;;;;;;4979349;28;20136;-68
2022/10/17 10:38:30;;;;;;;4.53;1.30;;;;;;;;;;4979009;28;20108;-68
2022/10/17 10:41:06;;;;;;;5.72;1.80;;;;;;;;;;4992771;28;20109;-68
2022/10/17 10:43:45;;;;;;;3.65;1.50;;;;;;;;;;5013455;28;20042;-68
2022/10/17 10:46:26;;;;;;;3.38;1.75;;;;;;;;;;4996109;28;20046;-66
2022/10/17 10:48:58;;;;;;;5.32;1.70;;;;;;;;;;4998352;28;20061;-69
2022/10/17 10:51:28;;;;;;;4.93;1.52;;;;;;;;;;4998368;28;20122;-69
2022/10/17 10:54:07;;;;;;;3.65;1.85;;;;;;;;;;4999883;28;20069;-69
2022/10/17 10:56:59;;;;;;;3.25;1.50;;;;;;;;;;4999946;28;20472;-68
2022/10/17 10:59:34;;;;;;;3.10;1.50;;;;;;;;;;4997151;28;20571;-68
2022/10/17 11:02:20;;;;;;;6.55;1.50;;;;;;;;;;5004070;28;20099;-68
2022/10/17 11:05:12;;;;;;;2.65;1.70;;;;;;;;;;5005970;28;20049;-68
2022/10/17 11:08:04;;;;;;;2.60;1.70;;;;;;;;;;5000505;28;20598;-69
2022/10/17 11:10:33;;;;;;;4.38;1.58;;;;;;;;;;4999224;28;20052;-68
2022/10/17 11:13:36;;;;;;;3.08;1.42;;;;;;;;;;4998485;28;20061;-68
2022/10/17 11:16:11;;;;;;;8.65;1.63;;;;;;;;;;4981737;28;20249;-70
2022/10/17 11:19:01;;;;;;;3.80;1.52;;;;;;;;;;4996776;28;20054;-69
2022/10/17 11:22:02;;;;;;;2.00;1.50;;;;;;;;;;4998407;28;20077;-72
2022/10/17 11:24:39;;;;;;;4.00;1.33;;;;;;;;;;4995566;28;20045;-71
2022/10/17 11:27:07;;;;;;;6.47;1.95;;;;;;;;;;4987512;28;20042;-69
2022/10/17 11:29:37;;;;;;;3.03;1.33;;;;;;;;;;4997696;28;20740;-71
2022/10/17 11:32:17;;;;;;;5.28;1.42;;;;;;;;;;5001930;28;20054;-74
2022/10/17 11:34:50;;;;;;;6.57;1.90;;;;;;;;;;5018253;28;20073;-68
2022/10/17 11:37:22;;;;;;;5.18;1.50;;;;;;;;;;5005286;28;20073;-73
2022/10/17 11:39:55;;;;;;;3.63;1.40;;;;;;;;;;4985396;28;20050;-76
2022/10/17 11:42:28;;;;;;;2.22;1.33;;;;;;;;;;4994377;28;20046;-77
2022/10/17 11:45:02;;;;;;;5.38;2.10;;;;;;;;;;4968674;28;20049;-74
2022/10/17 11:47:45;;;;;;;2.42;1.20;;;;;;;;;;4985456;28;20050;-73
2022/10/17 11:50:18;;;;;;;4.00;1.60;;;;;;;;;;5002447;28;20049;-76
2022/10/17 11:53:16;;;;;;;3.40;1.77;;;;;;;;;;5003612;28;20050;-72
2022/10/17 11:55:44;;;;;;;1.95;1.60;;;;;;;;;;4988556;28;20572;-73
2022/10/17 11:58:38;;;;;;;3.30;1.48;;;;;;;;;;4988716;28;20149;-74
2022/10/17 12:01:24;;;;;;;4.70;1.38;;;;;;;;;;4999168;28;20046;-68
2022/10/17 12:04:00;;;;;;;3.13;1.65;;;;;;;;;;5000538;28;20462;-67
2022/10/17 12:06:42;;;;;;;6.43;1.20;;;;;;;;;;5002701;28;20043;-67
2022/10/17 12:09:14;;;;;;;2.58;1.38;;;;;;;;;;5000110;28;20054;-72
2022/10/17 12:11:54;;;;;;;1.48;1.15;;;;;;;;;;4999937;28;20165;-70
2022/10/17 12:14:41;;;;;;;4.35;1.60;;;;;;;;;;5002388;28;20092;-69
2022/10/17 12:17:39;;;;;;;3.60;1.40;;;;;;;;;;5004709;28;20413;-70
2022/10/17 12:20:24;;;;;;;8.60;2.05;;;;;;;;;;5000670;28;20432;-68
2022/10/17 12:22:54;;;;;;;4.03;1.45;;;;;;;;;;5001550;28;20050;-64
2022/10/17 12:25:29;;;;;;;7.82;1.63;;;;;;;;;;4996329;28;20104;-64
2022/10/17 12:28:06;;;;;;;1.73;1.15;;;;;;;;;;4999238;28;20497;-65
2022/10/17 12:30:32;;;;;;;2.20;0.85;;;;;;;;;;5000597;28;20112;-64
2022/10/17 12:33:11;;;;;;;5.88;1.10;;;;;;;;;;4998631;28;20082;-65
2022/10/17 12:35:38;;;;;;;2.72;1.30;;;;;;;;;;5001267;28;20046;-66
2022/10/17 12:38:25;;;;;;;3.35;1.30;;;;;;;;;;4996748;28;20105;-65
2022/10/17 12:40:54;;;;;;;2.70;1.30;;;;;;;;;;4998617;28;20461;-65
2022/10/17 12:43:26;;;;;;;4.00;1.30;;;;;;;;;;5000851;28;20104;-69
2022/10/17 12:45:54;;;;;;;2.08;1.20;;;;;;;;;;4999056;28;20173;-67
2022/10/17 12:48:33;;;;;;;3.63;1.40;;;;;;;;;;5000951;28;20052;-71
2022/10/17 12:51:04;;;;;;;4.80;1.23;;;;;;;;;;5000181;28;20053;-70
2022/10/17 12:53:57;;;;;;;2.85;1.42;;;;;;;;;;4999177;28;20042;-69
2022/10/17 12:56:37;;;;;;;2.35;1.10;;;;;;;;;;5000620;28;20050;-70
2022/10/17 12:59:11;;;;;;;3.08;1.20;;;;;;;;;;4994881;28;20077;-69
2022/10/17 13:01:38;;;;;;;3.38;1.40;;;;;;;;;;4987472;28;20357;-69
2022/10/17 13:04:05;;;;;;;3.03;1.52;;;;;;;;;;4996522;28;20046;-68
2022/10/17 13:06:39;;;;;;;4.85;2.17;;;;;;;;;;4981771;28;20053;-69
2022/10/17 13:09:24;;;;;;;5.50;1.42;;;;;;;;;;4983468;28;20050;-72
2022/10/17 13:11:51;;;;;;;3.35;1.90;;;;;;;;;;5003043;28;20057;-69
2022/10/17 13:14:18;;;;;;;3.28;1.45;;;;;;;;;;4981715;28;20133;-66
2022/10/17 13:16:59;;;;;;;4.43;1.83;;;;;;;;;;4983492;28;20050;-72
2022/10/17 13:19:38;;;;;;;3.45;1.52;;;;;;;;;;4999788;28;20042;-74
2022/10/17 13:22:21;;;;;;;2.92;1.50;;;;;;;;;;4999745;28;20066;-70
2022/10/17 13:24:49;;;;;;;3.35;1.50;;;;;;;;;;4998739;28;20490;-69
2022/10/17 13:27:27;;;;;;;1.55;1.40;;;;;;;;;;4997412;28;20050;-76
2022/10/17 13:29:55;;;;;;;4.15;1.38;;;;;;;;;;5003042;28;20050;-74
2022/10/17 13:32:24;;;;;;;2.38;1.38;;;;;;;;;;5006416;28;20587;-74
2022/10/17 13:35:22;;;;;;;1.83;1.38;;;;;;;;;;5001853;28;20046;-74
2022/10/17 13:38:06;;;;;;;3.78;1.50;;;;;;;;;;4986312;28;20054;-73
2022/10/17 13:40:41;;;;;;;5.00;1.60;;;;;;;;;;4999211;28;20057;-75
2022/10/17 13:43:20;;;;;;;4.13;1.58;;;;;;;;;;4987523;28;20137;-73
2022/10/17 13:46:02;;;;;;;2.35;1.63;;;;;;;;;;5001911;28;20058;-70
2022/10/17 13:48:49;;;;;;;4.22;1.70;;;;;;;;;;4996284;28;20054;-68
2022/10/17 13:51:16;;;;;;;2.58;1.63;;;;;;;;;;5002661;28;20642;-71
2022/10/17 13:53:43;;;;;;;6.03;1.60;;;;;;;;;;5001363;28;20042;-75
2022/10/17 13:56:19;;;;;;;4.32;1.48;;;;;;;;;;5006111;28;20074;-74
2022/10/17 13:59:06;;;;;;;3.08;1.60;;;;;;;;;;4988444;28;20054;-69
2022/10/17 14:01:33;;;;;;;3.17;1.40;;;;;;;;;;4983356;28;20096;-74
2022/10/17 14:04:00;;;;;;;4.53;1.25;;;;;;;;;;4989689;28;20252;-68
2022/10/17 14:07:02;;;;;;;2.10;1.42;;;;;;;;;;4999089;28;20050;-78
2022/10/17 14:09:29;;;;;;;3.72;2.00;;;;;;;;;;4996801;28;20102;-74
2022/10/17 14:12:01;;;;;;;3.70;1.73;;;;;;;;;;4984612;28;20707;-75
2022/10/17 14:14:28;;;;;;;5.05;1.65;;;;;;;;;;5003450;28;20120;-76
2022/10/17 14:17:25;;;;;;;2.85;1.67;;;;;;;;;;4998852;28;20049;-75
2022/10/17 14:19:55;;;;;;;3.63;1.20;;;;;;;;;;4985427;28;20562;-74
2022/10/17 14:22:42;;;;;;;3.38;1.40;;;;;;;;;;4998881;28;20078;-75
2022/10/17 14:25:27;;;;;;;1.95;1.23;;;;;;;;;;4999336;28;20039;-77
2022/10/17 14:28:15;;;;;;;3.67;1.27;;;;;;;;;;5002137;28;20054;-72
2022/10/17 14:30:46;;;;;;;1.98;1.30;;;;;;;;;;5006660;28;20505;-70
2022/10/17 14:33:31;;;;;;;4.05;1.50;;;;;;;;;;5003857;28;20497;-70
2022/10/17 14:36:00;;;;;;;4.68;1.60;;;;;;;;;;5001420;28;20055;-69
2022/10/17 14:38:28;;;;;;;5.05;1.45;;;;;;;;;;5019034;28;20081;-69
2022/10/17 14:41:21;;;;;;;2.80;1.33;;;;;;;;;;4984692;28;20050;-69
2022/10/17 14:44:19;;;;;;;2.90;1.40;;;;;;;;;;4991578;28;20104;-68
2022/10/17 14:46:46;;;;;;;3.97;1.45;;;;;;;;;;5000054;28;20050;-68
2022/10/17 14:49:21;;;;;;;6.38;1.67;;;;;;;;;;5004102;28;20129;-69
2022/10/17 14:52:10;;;;;;;2.78;1.63;;;;;;;;;;5000341;28;20054;-68
2022/10/17 14:54:45;;;;;;;3.10;1.65;;;;;;;;;;5003912;28;20132;-67
2022/10/17 14:57:37;;;;;;;4.45;1.40;;;;;;;;;;5002517;28;20097;-69
2022/10/17 15:00:04;;;;;;;2.00;1.58;;;;;;;;;;4994916;28;20124;-68
2022/10/17 15:02:31;;;;;;;2.25;1.08;;;;;;;;;;5004084;28;20050;-68
2022/10/17 15:05:14;;;;;;;3.75;1.40;;;;;;;;;;5003308;28;20053;-80
2022/10/17 15:07:48;;;;;;;3.13;1.40;;;;;;;;;;4986993;28;20109;-78
2022/10/17 15:10:27;;;;;;;2.92;1.30;;;;;;;;;;4986732;28;20046;-71
2022/10/17 15:12:54;;;;;;;3.85;1.80;;;;;;;;;;4998864;28;20532;-67
2022/10/17 15:15:41;;;;;;;2.55;1.25;;;;;;;;;;5002856;28;20046;-66